sensor_id;sensor_type;location;lat;lon;timestamp;P1;durP1;ratioP1;P2;durP2;ratioP2
8177;SDS011;4130;48.740;9.132;2023-08-06T00:00:38;3.67;;;3.30;;
8177;SDS011;4130;48.740;9.132;2023-08-06T00:03:05;2.80;;;2.60;;
8177;SDS011;4130;48.740;9.132;2023-08-06T00:05:32;2.67;;;2.47;;
8177;SDS011;4130;48.740;9.132;2023-08-06T00:07:59;2.25;;;2.15;;
8177;SDS011;4130;48.740;9.132;2023-08-06T00:10:27;2.47;;;2.28;;
8177;SDS011;4130;48.740;9.132;2023-08-06T00:12:54;2.40;;;2.20;;
8177;SDS011;4130;48.740;9.132;2023-08-06T00:15:21;2.63;;;2.42;;
8177;SDS011;4130;48.740;9.132;2023-08-06T00:17:48;2.73;;;2.53;;
8177;SDS011;4130;48.740;9.132;2023-08-06T00:20:15;3.33;;;2.80;;
8177;SDS011;4130;48.740;9.132;2023-08-06T00:22:42;2.97;;;2.78;;
8177;SDS011;4130;48.740;9.132;2023-08-06T00:25:09;3.07;;;2.80;;
8177;SDS011;4130;48.740;9.132;2023-08-06T00:27:37;2.90;;;2.60;;
8177;SDS011;4130;48.740;9.132;2023-08-06T00:30:04;2.25;;;2.15;;
8177;SDS011;4130;48.740;9.132;2023-08-06T00:32:32;2.70;;;2.30;;
8177;SDS011;4130;48.740;9.132;2023-08-06T00:34:59;2.40;;;2.30;;
8177;SDS011;4130;48.740;9.132;2023-08-06T00:37:26;2.47;;;2.28;;
8177;SDS011;4130;48.740;9.132;2023-08-06T00:39:52;2.07;;;1.97;;
8177;SDS011;4130;48.740;9.132;2023-08-06T00:42:19;2.33;;;2.07;;
8177;SDS011;4130;48.740;9.132;2023-08-06T00:44:48;2.13;;;1.93;;
8177;SDS011;4130;48.740;9.132;2023-08-06T00:47:15;1.77;;;1.67;;
8177;SDS011;4130;48.740;9.132;2023-08-06T00:49:42;2.20;;;2.00;;
8177;SDS011;4130;48.740;9.132;2023-08-06T00:52:09;2.13;;;1.70;;
8177;SDS011;4130;48.740;9.132;2023-08-06T00:54:38;1.90;;;1.80;;
8177;SDS011;4130;48.740;9.132;2023-08-06T00:57:05;1.80;;;1.70;;
8177;SDS011;4130;48.740;9.132;2023-08-06T00:59:34;2.60;;;1.90;;
8177;SDS011;4130;48.740;9.132;2023-08-06T01:02:02;1.83;;;1.73;;
8177;SDS011;4130;48.740;9.132;2023-08-06T01:04:31;2.00;;;1.90;;
8177;SDS011;4130;48.740;9.132;2023-08-06T01:07:03;1.80;;;1.70;;
8177;SDS011;4130;48.740;9.132;2023-08-06T01:09:42;1.80;;;1.70;;
8177;SDS011;4130;48.740;9.132;2023-08-06T01:12:18;1.80;;;1.70;;
8177;SDS011;4130;48.740;9.132;2023-08-06T01:14:53;1.80;;;1.70;;
8177;SDS011;4130;48.740;9.132;2023-08-06T01:17:28;2.60;;;1.50;;
8177;SDS011;4130;48.740;9.132;2023-08-06T01:19:56;2.17;;;1.53;;
8177;SDS011;4130;48.740;9.132;2023-08-06T01:22:25;1.70;;;1.60;;
8177;SDS011;4130;48.740;9.132;2023-08-06T01:24:52;1.70;;;1.60;;
8177;SDS011;4130;48.740;9.132;2023-08-06T01:27:22;1.73;;;1.63;;
8177;SDS011;4130;48.740;9.132;2023-08-06T01:29:55;1.90;;;1.80;;
8177;SDS011;4130;48.740;9.132;2023-08-06T01:32:26;1.80;;;1.70;;
8177;SDS011;4130;48.740;9.132;2023-08-06T01:34:55;2.17;;;1.97;;
8177;SDS011;4130;48.740;9.132;2023-08-06T01:37:26;1.80;;;1.70;;
8177;SDS011;4130;48.740;9.132;2023-08-06T01:39:54;1.90;;;1.80;;
8177;SDS011;4130;48.740;9.132;2023-08-06T01:42:20;1.90;;;1.80;;
8177;SDS011;4130;48.740;9.132;2023-08-06T01:44:47;2.30;;;1.70;;
8177;SDS011;4130;48.740;9.132;2023-08-06T01:47:14;1.90;;;1.80;;
8177;SDS011;4130;48.740;9.132;2023-08-06T01:49:40;3.87;;;1.90;;
8177;SDS011;4130;48.740;9.132;2023-08-06T01:52:07;1.97;;;1.87;;
8177;SDS011;4130;48.740;9.132;2023-08-06T01:54:36;1.97;;;1.87;;
8177;SDS011;4130;48.740;9.132;2023-08-06T01:57:03;1.80;;;1.70;;
8177;SDS011;4130;48.740;9.132;2023-08-06T01:59:30;2.63;;;1.73;;
8177;SDS011;4130;48.740;9.132;2023-08-06T02:01:56;1.90;;;1.80;;
8177;SDS011;4130;48.740;9.132;2023-08-06T02:04:23;2.37;;;1.90;;
8177;SDS011;4130;48.740;9.132;2023-08-06T02:06:50;1.87;;;1.77;;
8177;SDS011;4130;48.740;9.132;2023-08-06T02:09:17;1.77;;;1.67;;
8177;SDS011;4130;48.740;9.132;2023-08-06T02:11:45;4.53;;;1.70;;
8177;SDS011;4130;48.740;9.132;2023-08-06T02:14:19;1.50;;;1.40;;
8177;SDS011;4130;48.740;9.132;2023-08-06T02:16:45;1.73;;;1.63;;
8177;SDS011;4130;48.740;9.132;2023-08-06T02:19:12;1.70;;;1.60;;
8177;SDS011;4130;48.740;9.132;2023-08-06T02:21:39;1.60;;;1.50;;
8177;SDS011;4130;48.740;9.132;2023-08-06T02:24:06;1.50;;;1.40;;
8177;SDS011;4130;48.740;9.132;2023-08-06T02:26:32;1.77;;;1.60;;
8177;SDS011;4130;48.740;9.132;2023-08-06T02:29:00;1.60;;;1.50;;
8177;SDS011;4130;48.740;9.132;2023-08-06T02:31:27;1.67;;;1.57;;
8177;SDS011;4130;48.740;9.132;2023-08-06T02:33:54;1.53;;;1.43;;
8177;SDS011;4130;48.740;9.132;2023-08-06T02:36:21;1.60;;;1.50;;
8177;SDS011;4130;48.740;9.132;2023-08-06T02:38:47;2.50;;;1.50;;
8177;SDS011;4130;48.740;9.132;2023-08-06T02:41:14;1.70;;;1.60;;
8177;SDS011;4130;48.740;9.132;2023-08-06T02:43:41;1.50;;;1.40;;
8177;SDS011;4130;48.740;9.132;2023-08-06T02:46:10;2.23;;;1.67;;
8177;SDS011;4130;48.740;9.132;2023-08-06T02:48:36;1.50;;;1.40;;
8177;SDS011;4130;48.740;9.132;2023-08-06T02:51:03;1.60;;;1.50;;
8177;SDS011;4130;48.740;9.132;2023-08-06T02:53:30;1.53;;;1.43;;
8177;SDS011;4130;48.740;9.132;2023-08-06T02:55:57;1.70;;;1.60;;
8177;SDS011;4130;48.740;9.132;2023-08-06T02:58:24;1.60;;;1.50;;
8177;SDS011;4130;48.740;9.132;2023-08-06T03:01:00;1.53;;;1.43;;
8177;SDS011;4130;48.740;9.132;2023-08-06T03:03:30;1.50;;;1.40;;
8177;SDS011;4130;48.740;9.132;2023-08-06T03:05:57;1.30;;;1.30;;
8177;SDS011;4130;48.740;9.132;2023-08-06T03:08:24;1.50;;;1.30;;
8177;SDS011;4130;48.740;9.132;2023-08-06T03:10:51;2.50;;;1.30;;
8177;SDS011;4130;48.740;9.132;2023-08-06T03:13:18;1.40;;;1.30;;
8177;SDS011;4130;48.740;9.132;2023-08-06T03:15:51;1.70;;;1.60;;
8177;SDS011;4130;48.740;9.132;2023-08-06T03:18:19;1.90;;;1.40;;
8177;SDS011;4130;48.740;9.132;2023-08-06T03:20:47;1.43;;;1.33;;
8177;SDS011;4130;48.740;9.132;2023-08-06T03:23:14;1.50;;;1.40;;
8177;SDS011;4130;48.740;9.132;2023-08-06T03:25:41;1.60;;;1.50;;
8177;SDS011;4130;48.740;9.132;2023-08-06T03:28:08;1.53;;;1.43;;
8177;SDS011;4130;48.740;9.132;2023-08-06T03:30:34;2.60;;;2.00;;
8177;SDS011;4130;48.740;9.132;2023-08-06T03:33:01;1.87;;;1.27;;
8177;SDS011;4130;48.740;9.132;2023-08-06T03:35:28;1.70;;;1.60;;
8177;SDS011;4130;48.740;9.132;2023-08-06T03:37:56;1.63;;;1.30;;
8177;SDS011;4130;48.740;9.132;2023-08-06T03:40:23;1.53;;;1.43;;
8177;SDS011;4130;48.740;9.132;2023-08-06T03:42:49;2.10;;;1.30;;
8177;SDS011;4130;48.740;9.132;2023-08-06T03:45:16;1.80;;;1.30;;
8177;SDS011;4130;48.740;9.132;2023-08-06T03:47:43;1.23;;;1.13;;
8177;SDS011;4130;48.740;9.132;2023-08-06T03:50:10;1.57;;;1.37;;
8177;SDS011;4130;48.740;9.132;2023-08-06T03:52:36;1.50;;;1.40;;
8177;SDS011;4130;48.740;9.132;2023-08-06T03:55:05;1.47;;;1.23;;
8177;SDS011;4130;48.740;9.132;2023-08-06T03:57:32;1.30;;;1.20;;
8177;SDS011;4130;48.740;9.132;2023-08-06T03:59:59;1.57;;;1.23;;
8177;SDS011;4130;48.740;9.132;2023-08-06T04:02:25;1.57;;;1.20;;
8177;SDS011;4130;48.740;9.132;2023-08-06T04:04:52;1.37;;;1.20;;
8177;SDS011;4130;48.740;9.132;2023-08-06T04:07:19;1.30;;;1.20;;
8177;SDS011;4130;48.740;9.132;2023-08-06T04:09:52;2.87;;;1.30;;
8177;SDS011;4130;48.740;9.132;2023-08-06T04:12:22;1.07;;;1.00;;
8177;SDS011;4130;48.740;9.132;2023-08-06T04:14:49;1.77;;;1.30;;
8177;SDS011;4130;48.740;9.132;2023-08-06T04:17:16;2.10;;;1.10;;
8177;SDS011;4130;48.740;9.132;2023-08-06T04:19:45;2.07;;;1.50;;
8177;SDS011;4130;48.740;9.132;2023-08-06T04:22:12;1.70;;;1.20;;
8177;SDS011;4130;48.740;9.132;2023-08-06T04:24:39;1.83;;;1.10;;
8177;SDS011;4130;48.740;9.132;2023-08-06T04:27:07;1.30;;;1.20;;
8177;SDS011;4130;48.740;9.132;2023-08-06T04:29:36;1.20;;;1.10;;
8177;SDS011;4130;48.740;9.132;2023-08-06T04:32:03;1.23;;;1.10;;
8177;SDS011;4130;48.740;9.132;2023-08-06T04:34:31;0.97;;;0.93;;
8177;SDS011;4130;48.740;9.132;2023-08-06T04:36:58;1.00;;;1.00;;
8177;SDS011;4130;48.740;9.132;2023-08-06T04:39:25;1.30;;;1.17;;
8177;SDS011;4130;48.740;9.132;2023-08-06T04:41:52;1.10;;;1.10;;
8177;SDS011;4130;48.740;9.132;2023-08-06T04:44:19;1.23;;;1.13;;
8177;SDS011;4130;48.740;9.132;2023-08-06T04:46:48;1.23;;;1.10;;
8177;SDS011;4130;48.740;9.132;2023-08-06T04:49:14;1.83;;;1.13;;
8177;SDS011;4130;48.740;9.132;2023-08-06T04:51:41;1.13;;;0.73;;
8177;SDS011;4130;48.740;9.132;2023-08-06T04:54:08;1.10;;;1.00;;
8177;SDS011;4130;48.740;9.132;2023-08-06T04:56:34;1.20;;;1.10;;
8177;SDS011;4130;48.740;9.132;2023-08-06T04:59:01;1.37;;;1.17;;
8177;SDS011;4130;48.740;9.132;2023-08-06T05:01:28;1.27;;;1.10;;
8177;SDS011;4130;48.740;9.132;2023-08-06T05:03:56;2.27;;;1.00;;
8177;SDS011;4130;48.740;9.132;2023-08-06T05:06:23;0.87;;;0.87;;
8177;SDS011;4130;48.740;9.132;2023-08-06T05:08:49;1.00;;;0.90;;
8177;SDS011;4130;48.740;9.132;2023-08-06T05:11:16;1.60;;;1.00;;
8177;SDS011;4130;48.740;9.132;2023-08-06T05:13:43;1.10;;;0.73;;
8177;SDS011;4130;48.740;9.132;2023-08-06T05:16:09;1.07;;;0.90;;
8177;SDS011;4130;48.740;9.132;2023-08-06T05:18:36;1.00;;;0.80;;
8177;SDS011;4130;48.740;9.132;2023-08-06T05:21:05;0.80;;;0.80;;
8177;SDS011;4130;48.740;9.132;2023-08-06T05:23:31;1.07;;;0.70;;
8177;SDS011;4130;48.740;9.132;2023-08-06T05:25:58;0.80;;;0.67;;
8177;SDS011;4130;48.740;9.132;2023-08-06T05:28:25;0.77;;;0.70;;
8177;SDS011;4130;48.740;9.132;2023-08-06T05:30:52;0.60;;;0.60;;
8177;SDS011;4130;48.740;9.132;2023-08-06T05:33:18;0.90;;;0.70;;
8177;SDS011;4130;48.740;9.132;2023-08-06T05:35:45;1.50;;;0.73;;
8177;SDS011;4130;48.740;9.132;2023-08-06T05:38:13;0.60;;;0.60;;
8177;SDS011;4130;48.740;9.132;2023-08-06T05:40:40;0.80;;;0.80;;
8177;SDS011;4130;48.740;9.132;2023-08-06T05:43:07;0.57;;;0.57;;
8177;SDS011;4130;48.740;9.132;2023-08-06T05:45:33;0.60;;;0.60;;
8177;SDS011;4130;48.740;9.132;2023-08-06T05:48:00;0.80;;;0.60;;
8177;SDS011;4130;48.740;9.132;2023-08-06T05:50:27;0.50;;;0.50;;
8177;SDS011;4130;48.740;9.132;2023-08-06T05:52:53;0.43;;;0.43;;
8177;SDS011;4130;48.740;9.132;2023-08-06T05:55:21;0.40;;;0.40;;
8177;SDS011;4130;48.740;9.132;2023-08-06T05:57:48;0.30;;;0.30;;
8177;SDS011;4130;48.740;9.132;2023-08-06T06:00:17;2.20;;;0.60;;
8177;SDS011;4130;48.740;9.132;2023-08-06T06:02:45;0.87;;;0.30;;
8177;SDS011;4130;48.740;9.132;2023-08-06T06:05:12;1.03;;;0.40;;
8177;SDS011;4130;48.740;9.132;2023-08-06T06:07:39;0.97;;;0.50;;
8177;SDS011;4130;48.740;9.132;2023-08-06T06:10:06;0.40;;;0.33;;
8177;SDS011;4130;48.740;9.132;2023-08-06T06:12:35;0.40;;;0.40;;
8177;SDS011;4130;48.740;9.132;2023-08-06T06:15:02;0.47;;;0.30;;
8177;SDS011;4130;48.740;9.132;2023-08-06T06:17:29;0.50;;;0.40;;
8177;SDS011;4130;48.740;9.132;2023-08-06T06:19:56;0.23;;;0.23;;
8177;SDS011;4130;48.740;9.132;2023-08-06T06:22:22;0.40;;;0.40;;
8177;SDS011;4130;48.740;9.132;2023-08-06T06:24:49;1.60;;;0.60;;
8177;SDS011;4130;48.740;9.132;2023-08-06T06:27:16;0.20;;;0.20;;
8177;SDS011;4130;48.740;9.132;2023-08-06T06:29:44;0.73;;;0.23;;
8177;SDS011;4130;48.740;9.132;2023-08-06T06:32:11;0.40;;;0.40;;
8177;SDS011;4130;48.740;9.132;2023-08-06T06:34:38;0.50;;;0.40;;
8177;SDS011;4130;48.740;9.132;2023-08-06T06:37:04;0.60;;;0.57;;
8177;SDS011;4130;48.740;9.132;2023-08-06T06:39:31;0.80;;;0.60;;
8177;SDS011;4130;48.740;9.132;2023-08-06T06:41:58;0.32;;;0.32;;
8177;SDS011;4130;48.740;9.132;2023-08-06T06:44:25;1.47;;;0.40;;
8177;SDS011;4130;48.740;9.132;2023-08-06T06:46:53;0.80;;;0.55;;
8177;SDS011;4130;48.740;9.132;2023-08-06T06:49:20;0.30;;;0.30;;
8177;SDS011;4130;48.740;9.132;2023-08-06T06:51:46;0.25;;;0.25;;
8177;SDS011;4130;48.740;9.132;2023-08-06T06:54:13;0.60;;;0.50;;
8177;SDS011;4130;48.740;9.132;2023-08-06T06:56:40;0.67;;;0.60;;
8177;SDS011;4130;48.740;9.132;2023-08-06T06:59:07;0.83;;;0.40;;
8177;SDS011;4130;48.740;9.132;2023-08-06T07:01:34;0.83;;;0.57;;
8177;SDS011;4130;48.740;9.132;2023-08-06T07:04:02;0.43;;;0.43;;
8177;SDS011;4130;48.740;9.132;2023-08-06T07:06:30;0.90;;;0.50;;
8177;SDS011;4130;48.740;9.132;2023-08-06T07:08:56;0.60;;;0.60;;
8177;SDS011;4130;48.740;9.132;2023-08-06T07:11:23;0.67;;;0.33;;
8177;SDS011;4130;48.740;9.132;2023-08-06T07:13:55;0.23;;;0.20;;
8177;SDS011;4130;48.740;9.132;2023-08-06T07:16:23;0.97;;;0.40;;
8177;SDS011;4130;48.740;9.132;2023-08-06T07:18:50;1.07;;;0.53;;
8177;SDS011;4130;48.740;9.132;2023-08-06T07:21:19;0.83;;;0.50;;
8177;SDS011;4130;48.740;9.132;2023-08-06T07:23:46;0.53;;;0.20;;
8177;SDS011;4130;48.740;9.132;2023-08-06T07:26:14;0.43;;;0.40;;
8177;SDS011;4130;48.740;9.132;2023-08-06T07:28:41;0.33;;;0.30;;
8177;SDS011;4130;48.740;9.132;2023-08-06T07:31:08;0.37;;;0.37;;
8177;SDS011;4130;48.740;9.132;2023-08-06T07:33:35;0.40;;;0.40;;
8177;SDS011;4130;48.740;9.132;2023-08-06T07:36:07;0.10;;;0.10;;
8177;SDS011;4130;48.740;9.132;2023-08-06T07:38:36;0.30;;;0.30;;
8177;SDS011;4130;48.740;9.132;2023-08-06T07:41:03;0.77;;;0.40;;
8177;SDS011;4130;48.740;9.132;2023-08-06T07:43:30;0.10;;;0.10;;
8177;SDS011;4130;48.740;9.132;2023-08-06T07:45:57;0.07;;;0.07;;
8177;SDS011;4130;48.740;9.132;2023-08-06T07:48:25;0.23;;;0.10;;
8177;SDS011;4130;48.740;9.132;2023-08-06T07:50:52;0.33;;;0.23;;
8177;SDS011;4130;48.740;9.132;2023-08-06T07:53:19;1.10;;;0.20;;
8177;SDS011;4130;48.740;9.132;2023-08-06T07:55:48;0.10;;;0.10;;
8177;SDS011;4130;48.740;9.132;2023-08-06T07:58:16;0.10;;;0.10;;
8177;SDS011;4130;48.740;9.132;2023-08-06T08:00:43;0.20;;;0.20;;
8177;SDS011;4130;48.740;9.132;2023-08-06T08:03:10;0.20;;;0.20;;
8177;SDS011;4130;48.740;9.132;2023-08-06T08:05:38;0.03;;;0.03;;
8177;SDS011;4130;48.740;9.132;2023-08-06T08:08:05;0.93;;;0.23;;
8177;SDS011;4130;48.740;9.132;2023-08-06T08:10:32;0.00;;;0.00;;
8177;SDS011;4130;48.740;9.132;2023-08-06T08:13:01;0.10;;;0.10;;
8177;SDS011;4130;48.740;9.132;2023-08-06T08:15:28;0.10;;;0.10;;
8177;SDS011;4130;48.740;9.132;2023-08-06T08:17:55;0.20;;;0.20;;
8177;SDS011;4130;48.740;9.132;2023-08-06T08:20:22;0.00;;;0.00;;
8177;SDS011;4130;48.740;9.132;2023-08-06T08:22:49;0.00;;;0.00;;
8177;SDS011;4130;48.740;9.132;2023-08-06T08:25:16;0.00;;;0.00;;
8177;SDS011;4130;48.740;9.132;2023-08-06T08:27:43;0.00;;;0.00;;
8177;SDS011;4130;48.740;9.132;2023-08-06T08:30:11;0.00;;;0.00;;
8177;SDS011;4130;48.740;9.132;2023-08-06T08:32:38;0.10;;;0.10;;
8177;SDS011;4130;48.740;9.132;2023-08-06T08:35:05;1.93;;;0.00;;
8177;SDS011;4130;48.740;9.132;2023-08-06T08:37:32;0.10;;;0.10;;
8177;SDS011;4130;48.740;9.132;2023-08-06T08:39:58;0.10;;;0.10;;
8177;SDS011;4130;48.740;9.132;2023-08-06T08:42:26;1.27;;;0.10;;
8177;SDS011;4130;48.740;9.132;2023-08-06T08:44:53;0.00;;;0.00;;
8177;SDS011;4130;48.740;9.132;2023-08-06T08:47:22;0.07;;;0.07;;
8177;SDS011;4130;48.740;9.132;2023-08-06T08:49:51;0.10;;;0.10;;
8177;SDS011;4130;48.740;9.132;2023-08-06T08:52:20;0.20;;;0.03;;
8177;SDS011;4130;48.740;9.132;2023-08-06T08:54:48;0.23;;;0.23;;
8177;SDS011;4130;48.740;9.132;2023-08-06T08:57:18;0.10;;;0.10;;
8177;SDS011;4130;48.740;9.132;2023-08-06T08:59:44;0.00;;;0.00;;
8177;SDS011;4130;48.740;9.132;2023-08-06T09:02:12;0.30;;;0.00;;
8177;SDS011;4130;48.740;9.132;2023-08-06T09:04:42;0.43;;;0.20;;
8177;SDS011;4130;48.740;9.132;2023-08-06T09:07:11;0.10;;;0.10;;
8177;SDS011;4130;48.740;9.132;2023-08-06T09:09:46;0.00;;;0.00;;
8177;SDS011;4130;48.740;9.132;2023-08-06T09:12:16;0.10;;;0.10;;
8177;SDS011;4130;48.740;9.132;2023-08-06T09:14:43;0.10;;;0.10;;
8177;SDS011;4130;48.740;9.132;2023-08-06T09:17:10;0.00;;;0.00;;
8177;SDS011;4130;48.740;9.132;2023-08-06T09:19:37;0.00;;;0.00;;
8177;SDS011;4130;48.740;9.132;2023-08-06T09:22:05;0.13;;;0.10;;
8177;SDS011;4130;48.740;9.132;2023-08-06T09:24:38;0.00;;;0.00;;
8177;SDS011;4130;48.740;9.132;2023-08-06T09:27:05;0.10;;;0.10;;
8177;SDS011;4130;48.740;9.132;2023-08-06T09:29:39;0.17;;;0.17;;
8177;SDS011;4130;48.740;9.132;2023-08-06T09:32:07;0.10;;;0.00;;
8177;SDS011;4130;48.740;9.132;2023-08-06T09:34:33;0.10;;;0.10;;
8177;SDS011;4130;48.740;9.132;2023-08-06T09:37:07;0.10;;;0.10;;
8177;SDS011;4130;48.740;9.132;2023-08-06T09:39:36;0.00;;;0.00;;
8177;SDS011;4130;48.740;9.132;2023-08-06T09:42:04;0.00;;;0.00;;
8177;SDS011;4130;48.740;9.132;2023-08-06T09:44:32;0.20;;;0.20;;
8177;SDS011;4130;48.740;9.132;2023-08-06T09:47:00;0.10;;;0.10;;
8177;SDS011;4130;48.740;9.132;2023-08-06T09:49:28;0.10;;;0.10;;
8177;SDS011;4130;48.740;9.132;2023-08-06T09:52:07;0.00;;;0.00;;
8177;SDS011;4130;48.740;9.132;2023-08-06T09:54:37;1.58;;;0.10;;
8177;SDS011;4130;48.740;9.132;2023-08-06T09:57:04;0.10;;;0.10;;
8177;SDS011;4130;48.740;9.132;2023-08-06T09:59:32;0.10;;;0.10;;
8177;SDS011;4130;48.740;9.132;2023-08-06T10:01:59;0.00;;;0.00;;
8177;SDS011;4130;48.740;9.132;2023-08-06T10:04:26;0.20;;;0.08;;
8177;SDS011;4130;48.740;9.132;2023-08-06T10:06:55;0.17;;;0.10;;
8177;SDS011;4130;48.740;9.132;2023-08-06T10:09:25;0.30;;;0.20;;
8177;SDS011;4130;48.740;9.132;2023-08-06T10:11:51;0.00;;;0.00;;
8177;SDS011;4130;48.740;9.132;2023-08-06T10:14:20;0.03;;;0.03;;
8177;SDS011;4130;48.740;9.132;2023-08-06T10:16:50;0.10;;;0.10;;
8177;SDS011;4130;48.740;9.132;2023-08-06T10:19:20;0.00;;;0.00;;
8177;SDS011;4130;48.740;9.132;2023-08-06T10:24:47;0.10;;;0.10;;
8177;SDS011;4130;48.740;9.132;2023-08-06T10:27:19;0.20;;;0.20;;
8177;SDS011;4130;48.740;9.132;2023-08-06T10:29:47;0.07;;;0.07;;
8177;SDS011;4130;48.740;9.132;2023-08-06T10:32:14;0.08;;;0.00;;
8177;SDS011;4130;48.740;9.132;2023-08-06T10:34:56;0.30;;;0.10;;
8177;SDS011;4130;48.740;9.132;2023-08-06T10:37:24;0.22;;;0.20;;
8177;SDS011;4130;48.740;9.132;2023-08-06T10:40:02;0.00;;;0.00;;
8177;SDS011;4130;48.740;9.132;2023-08-06T10:42:32;0.47;;;0.10;;
8177;SDS011;4130;48.740;9.132;2023-08-06T10:45:11;0.47;;;0.23;;
8177;SDS011;4130;48.740;9.132;2023-08-06T10:47:39;0.10;;;0.10;;
8177;SDS011;4130;48.740;9.132;2023-08-06T10:50:06;0.10;;;0.10;;
8177;SDS011;4130;48.740;9.132;2023-08-06T10:52:34;0.10;;;0.10;;
8177;SDS011;4130;48.740;9.132;2023-08-06T10:55:03;0.00;;;0.00;;
8177;SDS011;4130;48.740;9.132;2023-08-06T10:57:30;0.07;;;0.07;;
8177;SDS011;4130;48.740;9.132;2023-08-06T10:59:57;0.00;;;0.00;;
8177;SDS011;4130;48.740;9.132;2023-08-06T11:02:24;0.00;;;0.00;;
8177;SDS011;4130;48.740;9.132;2023-08-06T11:04:54;0.20;;;0.20;;
8177;SDS011;4130;48.740;9.132;2023-08-06T11:07:21;0.10;;;0.10;;
8177;SDS011;4130;48.740;9.132;2023-08-06T11:09:50;0.13;;;0.03;;
8177;SDS011;4130;48.740;9.132;2023-08-06T11:12:19;0.03;;;0.03;;
8177;SDS011;4130;48.740;9.132;2023-08-06T11:14:49;0.10;;;0.10;;
8177;SDS011;4130;48.740;9.132;2023-08-06T11:17:16;0.00;;;0.00;;
8177;SDS011;4130;48.740;9.132;2023-08-06T11:19:43;0.00;;;0.00;;
8177;SDS011;4130;48.740;9.132;2023-08-06T11:22:10;0.10;;;0.10;;
8177;SDS011;4130;48.740;9.132;2023-08-06T11:24:37;0.00;;;0.00;;
8177;SDS011;4130;48.740;9.132;2023-08-06T11:27:10;0.20;;;0.20;;
8177;SDS011;4130;48.740;9.132;2023-08-06T11:29:39;0.10;;;0.10;;
8177;SDS011;4130;48.740;9.132;2023-08-06T11:32:06;0.33;;;0.33;;
8177;SDS011;4130;48.740;9.132;2023-08-06T11:34:34;0.30;;;0.30;;
8177;SDS011;4130;48.740;9.132;2023-08-06T11:37:02;0.40;;;0.40;;
8177;SDS011;4130;48.740;9.132;2023-08-06T11:39:30;0.50;;;0.50;;
8177;SDS011;4130;48.740;9.132;2023-08-06T11:41:57;0.53;;;0.30;;
8177;SDS011;4130;48.740;9.132;2023-08-06T11:44:25;0.50;;;0.50;;
8177;SDS011;4130;48.740;9.132;2023-08-06T11:46:53;0.30;;;0.30;;
8177;SDS011;4130;48.740;9.132;2023-08-06T11:49:36;0.50;;;0.50;;
8177;SDS011;4130;48.740;9.132;2023-08-06T11:52:07;2.27;;;0.50;;
8177;SDS011;4130;48.740;9.132;2023-08-06T11:54:36;0.40;;;0.40;;
8177;SDS011;4130;48.740;9.132;2023-08-06T11:57:03;0.43;;;0.43;;
8177;SDS011;4130;48.740;9.132;2023-08-06T11:59:31;1.53;;;0.50;;
8177;SDS011;4130;48.740;9.132;2023-08-06T12:02:01;0.57;;;0.53;;
8177;SDS011;4130;48.740;9.132;2023-08-06T12:04:29;0.40;;;0.40;;
8177;SDS011;4130;48.740;9.132;2023-08-06T12:06:56;0.80;;;0.70;;
8177;SDS011;4130;48.740;9.132;2023-08-06T12:09:31;1.03;;;0.90;;
8177;SDS011;4130;48.740;9.132;2023-08-06T12:11:58;0.60;;;0.60;;
8177;SDS011;4130;48.740;9.132;2023-08-06T12:14:25;0.67;;;0.67;;
8177;SDS011;4130;48.740;9.132;2023-08-06T12:16:52;1.00;;;1.00;;
8177;SDS011;4130;48.740;9.132;2023-08-06T12:19:20;0.80;;;0.63;;
8177;SDS011;4130;48.740;9.132;2023-08-06T12:22:06;0.60;;;0.60;;
8177;SDS011;4130;48.740;9.132;2023-08-06T12:24:33;0.13;;;0.13;;
8177;SDS011;4130;48.740;9.132;2023-08-06T12:27:00;1.10;;;0.40;;
8177;SDS011;4130;48.740;9.132;2023-08-06T12:29:28;0.43;;;0.43;;
8177;SDS011;4130;48.740;9.132;2023-08-06T12:31:56;2.30;;;0.47;;
8177;SDS011;4130;48.740;9.132;2023-08-06T12:34:23;0.47;;;0.47;;
8177;SDS011;4130;48.740;9.132;2023-08-06T12:36:50;0.70;;;0.70;;
8177;SDS011;4130;48.740;9.132;2023-08-06T12:39:18;0.70;;;0.70;;
8177;SDS011;4130;48.740;9.132;2023-08-06T12:41:45;1.08;;;0.63;;
8177;SDS011;4130;48.740;9.132;2023-08-06T12:44:12;0.52;;;0.52;;
8177;SDS011;4130;48.740;9.132;2023-08-06T12:46:39;0.50;;;0.50;;
8177;SDS011;4130;48.740;9.132;2023-08-06T12:49:06;0.52;;;0.52;;
8177;SDS011;4130;48.740;9.132;2023-08-06T12:51:33;0.75;;;0.70;;
8177;SDS011;4130;48.740;9.132;2023-08-06T12:54:00;0.30;;;0.30;;
8177;SDS011;4130;48.740;9.132;2023-08-06T12:56:28;0.60;;;0.60;;
8177;SDS011;4130;48.740;9.132;2023-08-06T12:58:55;2.28;;;0.50;;
8177;SDS011;4130;48.740;9.132;2023-08-06T13:01:22;0.60;;;0.60;;
8177;SDS011;4130;48.740;9.132;2023-08-06T13:03:49;0.80;;;0.80;;
8177;SDS011;4130;48.740;9.132;2023-08-06T13:06:16;0.60;;;0.57;;
8177;SDS011;4130;48.740;9.132;2023-08-06T13:08:43;0.60;;;0.60;;
8177;SDS011;4130;48.740;9.132;2023-08-06T13:11:10;0.80;;;0.80;;
8177;SDS011;4130;48.740;9.132;2023-08-06T13:13:38;1.25;;;0.80;;
8177;SDS011;4130;48.740;9.132;2023-08-06T13:16:05;0.57;;;0.57;;
8177;SDS011;4130;48.740;9.132;2023-08-06T13:18:32;0.55;;;0.55;;
8177;SDS011;4130;48.740;9.132;2023-08-06T13:20:59;1.27;;;0.88;;
8177;SDS011;4130;48.740;9.132;2023-08-06T13:23:26;0.82;;;0.80;;
8177;SDS011;4130;48.740;9.132;2023-08-06T13:25:53;0.65;;;0.65;;
8177;SDS011;4130;48.740;9.132;2023-08-06T13:28:20;0.63;;;0.63;;
8177;SDS011;4130;48.740;9.132;2023-08-06T13:30:48;0.40;;;0.40;;
8177;SDS011;4130;48.740;9.132;2023-08-06T13:33:15;0.60;;;0.60;;
8177;SDS011;4130;48.740;9.132;2023-08-06T13:35:43;0.40;;;0.40;;
8177;SDS011;4130;48.740;9.132;2023-08-06T13:38:09;1.38;;;0.55;;
8177;SDS011;4130;48.740;9.132;2023-08-06T13:40:37;0.60;;;0.60;;
8177;SDS011;4130;48.740;9.132;2023-08-06T13:43:03;0.20;;;0.20;;
8177;SDS011;4130;48.740;9.132;2023-08-06T13:45:30;0.50;;;0.50;;
8177;SDS011;4130;48.740;9.132;2023-08-06T13:48:01;0.50;;;0.40;;
8177;SDS011;4130;48.740;9.132;2023-08-06T13:50:28;0.50;;;0.50;;
8177;SDS011;4130;48.740;9.132;2023-08-06T13:52:55;0.43;;;0.43;;
8177;SDS011;4130;48.740;9.132;2023-08-06T13:55:22;0.30;;;0.30;;
8177;SDS011;4130;48.740;9.132;2023-08-06T13:57:49;0.98;;;0.40;;
8177;SDS011;4130;48.740;9.132;2023-08-06T14:00:16;0.90;;;0.30;;
8177;SDS011;4130;48.740;9.132;2023-08-06T14:02:43;0.60;;;0.40;;
8177;SDS011;4130;48.740;9.132;2023-08-06T14:05:12;0.30;;;0.30;;
8177;SDS011;4130;48.740;9.132;2023-08-06T14:07:39;0.50;;;0.47;;
8177;SDS011;4130;48.740;9.132;2023-08-06T14:10:06;0.43;;;0.43;;
8177;SDS011;4130;48.740;9.132;2023-08-06T14:12:34;1.13;;;0.60;;
8177;SDS011;4130;48.740;9.132;2023-08-06T14:15:01;0.30;;;0.30;;
8177;SDS011;4130;48.740;9.132;2023-08-06T14:17:29;0.40;;;0.40;;
8177;SDS011;4130;48.740;9.132;2023-08-06T14:19:56;0.40;;;0.40;;
8177;SDS011;4130;48.740;9.132;2023-08-06T14:22:24;0.63;;;0.40;;
8177;SDS011;4130;48.740;9.132;2023-08-06T14:24:51;0.65;;;0.55;;
8177;SDS011;4130;48.740;9.132;2023-08-06T14:27:18;0.45;;;0.45;;
8177;SDS011;4130;48.740;9.132;2023-08-06T14:29:45;0.50;;;0.50;;
8177;SDS011;4130;48.740;9.132;2023-08-06T14:32:12;0.55;;;0.55;;
8177;SDS011;4130;48.740;9.132;2023-08-06T14:34:42;0.88;;;0.68;;
8177;SDS011;4130;48.740;9.132;2023-08-06T14:37:09;0.82;;;0.75;;
8177;SDS011;4130;48.740;9.132;2023-08-06T14:39:38;0.40;;;0.40;;
8177;SDS011;4130;48.740;9.132;2023-08-06T14:42:05;0.28;;;0.28;;
8177;SDS011;4130;48.740;9.132;2023-08-06T14:44:32;0.20;;;0.20;;
8177;SDS011;4130;48.740;9.132;2023-08-06T14:46:59;3.70;;;0.63;;
8177;SDS011;4130;48.740;9.132;2023-08-06T14:49:26;0.63;;;0.50;;
8177;SDS011;4130;48.740;9.132;2023-08-06T14:51:53;0.30;;;0.30;;
8177;SDS011;4130;48.740;9.132;2023-08-06T14:54:20;0.43;;;0.43;;
8177;SDS011;4130;48.740;9.132;2023-08-06T14:56:48;1.83;;;0.77;;
8177;SDS011;4130;48.740;9.132;2023-08-06T14:59:15;0.57;;;0.57;;
8177;SDS011;4130;48.740;9.132;2023-08-06T15:01:42;0.30;;;0.30;;
8177;SDS011;4130;48.740;9.132;2023-08-06T15:04:08;0.50;;;0.32;;
8177;SDS011;4130;48.740;9.132;2023-08-06T15:09:57;1.07;;;0.20;;
8177;SDS011;4130;48.740;9.132;2023-08-06T15:12:26;0.50;;;0.50;;
8177;SDS011;4130;48.740;9.132;2023-08-06T15:14:53;0.65;;;0.38;;
8177;SDS011;4130;48.740;9.132;2023-08-06T15:17:21;0.30;;;0.30;;
8177;SDS011;4130;48.740;9.132;2023-08-06T15:19:49;1.65;;;0.50;;
8177;SDS011;4130;48.740;9.132;2023-08-06T15:22:16;0.55;;;0.55;;
8177;SDS011;4130;48.740;9.132;2023-08-06T15:24:43;0.77;;;0.60;;